Time;durP1;ratioP1;P1;durP2;ratioP2;P2;SDS_P1;SDS_P2;PMS_P1;PMS_P2;Temp;Humidity;BMP_temperature;BMP_pressure;BME280_temperature;BME280_humidity;BME280_pressure;Samples;Min_cycle;Max_cycle;Signal;HPM_P1;HPM_P2
2023/05/27 00:01:46;;;;;;;3.42;2.10;;;21.60;59.50;;;;;;4836079;29;92902;-88
2023/05/27 00:04:12;;;;;;;4.20;1.80;;;21.60;59.60;;;;;;4838655;29;93364;-87
2023/05/27 00:06:37;;;;;;;3.17;2.15;;;21.60;59.50;;;;;;4851906;28;96714;-89
2023/05/27 00:09:03;;;;;;;4.75;2.63;;;21.60;59.80;;;;;;4838801;29;96251;-88
2023/05/27 00:11:29;;;;;;;4.78;2.50;;;21.60;59.70;;;;;;4836653;29;92671;-88
2023/05/27 00:13:55;;;;;;;3.70;2.35;;;21.60;59.80;;;;;;4838292;29;92446;-87
2023/05/27 00:16:21;;;;;;;3.58;2.35;;;21.60;59.80;;;;;;4851613;28;95464;-87
2023/05/27 00:18:49;;;;;;;4.65;2.40;;;21.60;59.70;;;;;;4838240;28;92841;-88
2023/05/27 00:21:15;;;;;;;3.47;1.90;;;21.50;59.80;;;;;;4836990;28;92990;-87
2023/05/27 00:23:45;;;;;;;3.88;2.35;;;21.50;59.80;;;;;;4838004;29;92056;-88
2023/05/27 00:26:11;;;;;;;3.60;2.30;;;21.50;59.80;;;;;;4854156;28;95676;-87
2023/05/27 00:28:37;;;;;;;4.93;2.35;;;21.60;59.80;;;;;;4836847;29;93952;-87
2023/05/27 00:31:02;;;;;;;5.22;2.58;;;21.50;59.70;;;;;;4840290;28;93340;-88
2023/05/27 00:33:28;;;;;;;4.57;2.50;;;21.50;59.70;;;;;;4841479;28;92271;-88
2023/05/27 00:35:53;;;;;;;3.85;2.25;;;21.50;59.80;;;;;;4853232;28;96108;-87
2023/05/27 00:38:19;;;;;;;3.83;2.45;;;21.50;60.00;;;;;;4841529;29;92982;-88
2023/05/27 00:40:46;;;;;;;4.45;2.60;;;21.50;59.90;;;;;;4842577;28;93028;-89
2023/05/27 00:43:12;;;;;;;3.10;2.30;;;21.50;60.10;;;;;;4838912;28;93008;-86
2023/05/27 00:45:37;;;;;;;3.10;1.88;;;21.50;60.00;;;;;;4838466;28;95157;-87
2023/05/27 00:48:04;;;;;;;3.63;2.30;;;21.50;59.80;;;;;;4838938;29;94261;-87
2023/05/27 00:50:30;;;;;;;2.85;2.05;;;21.50;59.90;;;;;;4840811;29;92798;-88
2023/05/27 00:52:57;;;;;;;3.53;2.08;;;21.50;59.90;;;;;;4841027;29;92608;-88
2023/05/27 00:55:23;;;;;;;5.30;2.63;;;21.50;60.00;;;;;;4841205;28;96393;-88
2023/05/27 00:57:49;;;;;;;3.90;2.40;;;21.50;60.00;;;;;;4839309;29;96618;-87
2023/05/27 01:00:15;;;;;;;4.60;2.33;;;21.50;60.00;;;;;;4844612;28;93054;-88
2023/05/27 01:02:42;;;;;;;7.85;3.05;;;21.50;60.10;;;;;;4853248;28;92849;-87
2023/05/27 01:05:14;;;;;;;4.50;2.40;;;21.40;60.00;;;;;;4854863;28;94651;-89
2023/05/27 01:07:54;;;;;;;2.97;2.17;;;21.40;60.10;;;;;;4840132;28;93080;-88
2023/05/27 01:10:31;;;;;;;5.90;2.42;;;21.40;60.10;;;;;;4839151;29;92641;-88
2023/05/27 01:13:04;;;;;;;3.45;2.33;;;21.40;60.90;;;;;;4841733;28;92493;-88
2023/05/27 01:15:32;;;;;;;3.80;2.17;;;21.40;60.10;;;;;;4840924;29;95617;-87
2023/05/27 01:18:01;;;;;;;3.47;2.40;;;21.40;60.10;;;;;;4841306;29;94865;-87
2023/05/27 01:20:27;;;;;;;3.05;2.03;;;21.40;60.00;;;;;;4839877;29;93946;-87
2023/05/27 01:22:54;;;;;;;3.35;2.30;;;21.40;60.10;;;;;;4838802;29;92676;-87
2023/05/27 01:25:19;;;;;;;4.18;2.33;;;21.40;60.10;;;;;;4837459;28;95469;-87
2023/05/27 01:27:45;;;;;;;3.35;2.13;;;21.40;60.10;;;;;;4838973;29;95051;-87
2023/05/27 01:30:12;;;;;;;4.05;2.13;;;21.40;60.10;;;;;;4839955;28;92857;-88
2023/05/27 01:33:01;;;;;;;3.53;2.00;;;21.40;60.20;;;;;;4840781;29;92567;-88
2023/05/27 01:35:52;;;;;;;4.30;2.60;;;21.40;60.20;;;;;;4840607;28;92897;-89
2023/05/27 01:38:20;;;;;;;2.33;1.95;;;21.30;60.20;;;;;;4853825;28;95841;-88
2023/05/27 01:40:48;;;;;;;4.82;2.47;;;21.30;60.10;;;;;;4838547;29;93095;-88
2023/05/27 01:43:15;;;;;;;3.72;2.50;;;21.30;60.20;;;;;;4840868;29;92349;-88
2023/05/27 01:45:42;;;;;;;4.07;2.42;;;21.30;60.20;;;;;;4839232;29;96194;-88
2023/05/27 01:48:09;;;;;;;3.70;2.00;;;21.30;60.20;;;;;;4837104;29;95859;-88
2023/05/27 01:50:35;;;;;;;4.10;2.35;;;21.30;60.10;;;;;;4837741;29;92679;-88
2023/05/27 01:53:03;;;;;;;2.80;2.00;;;21.30;60.10;;;;;;4852994;28;92858;-88
2023/05/27 01:55:29;;;;;;;3.88;2.03;;;21.30;60.10;;;;;;4833394;29;94801;-88
2023/05/27 01:57:54;;;;;;;3.95;2.30;;;21.30;60.20;;;;;;4834898;29;95676;-88
2023/05/27 02:00:20;;;;;;;3.78;2.03;;;21.30;60.20;;;;;;4839750;28;92585;-88
2023/05/27 02:02:45;;;;;;;4.75;2.47;;;21.30;60.30;;;;;;4837213;29;92739;-88
2023/05/27 02:05:11;;;;;;;3.15;2.22;;;21.30;60.10;;;;;;4837062;29;95440;-87
2023/05/27 02:07:37;;;;;;;3.10;1.92;;;21.30;60.10;;;;;;4838566;29;95449;-87
2023/05/27 02:10:03;;;;;;;5.18;2.10;;;21.30;61.10;;;;;;4839027;29;93295;-88
2023/05/27 02:12:28;;;;;;;3.22;2.15;;;21.30;60.40;;;;;;4839043;29;92853;-88
2023/05/27 02:14:54;;;;;;;4.13;2.15;;;21.30;60.40;;;;;;4840889;28;95869;-88
2023/05/27 02:17:19;;;;;;;3.78;1.90;;;21.30;60.20;;;;;;4840629;28;92835;-88
2023/05/27 02:19:45;;;;;;;3.53;1.95;;;21.30;60.30;;;;;;4837894;29;92752;-86
2023/05/27 02:22:11;;;;;;;4.35;2.67;;;21.20;60.20;;;;;;4855501;28;92677;-87
2023/05/27 02:24:36;;;;;;;3.78;1.98;;;21.20;60.10;;;;;;4839042;28;95322;-87
2023/05/27 02:27:02;;;;;;;4.18;2.28;;;21.20;60.10;;;;;;4840129;29;95310;-87
2023/05/27 02:29:28;;;;;;;4.47;2.28;;;21.20;60.20;;;;;;4854862;28;93207;-88
2023/05/27 02:31:53;;;;;;;3.58;2.15;;;21.20;60.20;;;;;;4839914;29;92010;-87
2023/05/27 02:34:19;;;;;;;2.47;1.85;;;21.20;60.30;;;;;;4838540;29;96574;-87
2023/05/27 02:36:45;;;;;;;2.78;2.15;;;21.20;60.30;;;;;;4838612;29;96304;-88
2023/05/27 02:39:11;;;;;;;4.32;1.90;;;21.20;60.40;;;;;;4839509;28;92428;-87
2023/05/27 02:41:37;;;;;;;3.10;2.08;;;21.20;60.30;;;;;;4839651;29;92577;-87
2023/05/27 02:44:02;;;;;;;3.28;1.95;;;21.20;60.50;;;;;;4838120;29;96109;-88
2023/05/27 02:46:28;;;;;;;4.05;2.30;;;21.20;60.20;;;;;;4841093;29;94503;-88
2023/05/27 02:48:54;;;;;;;3.28;2.17;;;21.20;60.50;;;;;;4838969;29;93126;-88
2023/05/27 02:51:21;;;;;;;6.25;2.45;;;21.20;60.50;;;;;;4837163;28;91977;-88
2023/05/27 02:53:47;;;;;;;2.50;1.58;;;21.20;60.30;;;;;;4837457;29;95962;-88
2023/05/27 02:56:12;;;;;;;2.92;2.03;;;21.20;60.40;;;;;;4832919;29;95244;-88
2023/05/27 02:58:38;;;;;;;4.53;2.20;;;21.20;60.40;;;;;;4837967;29;93187;-88
2023/05/27 03:01:03;;;;;;;2.85;2.22;;;21.20;60.60;;;;;;4838599;29;92463;-88
2023/05/27 03:03:29;;;;;;;2.58;1.88;;;21.10;60.50;;;;;;4836923;29;99863;-88
2023/05/27 03:05:55;;;;;;;3.47;2.05;;;21.10;60.70;;;;;;4840799;29;95387;-88
2023/05/27 03:08:21;;;;;;;3.67;1.85;;;21.10;60.60;;;;;;4838972;29;93276;-87
2023/05/27 03:10:47;;;;;;;2.65;1.70;;;21.10;60.60;;;;;;4852900;28;93020;-88
2023/05/27 03:13:13;;;;;;;3.63;2.15;;;21.10;60.70;;;;;;4837493;29;94423;-87
2023/05/27 03:15:39;;;;;;;4.93;2.30;;;21.10;60.60;;;;;;4838864;29;95299;-87
2023/05/27 03:18:05;;;;;;;2.75;2.00;;;21.10;60.60;;;;;;4838255;28;92614;-88
2023/05/27 03:20:30;;;;;;;4.03;2.00;;;21.10;60.50;;;;;;4837859;29;93054;-88
2023/05/27 03:22:56;;;;;;;2.83;1.90;;;21.10;60.40;;;;;;4838005;29;95490;-87
2023/05/27 03:25:22;;;;;;;2.67;1.83;;;21.10;60.60;;;;;;4844925;28;96115;-88
2023/05/27 03:27:48;;;;;;;2.72;2.10;;;21.10;60.50;;;;;;4837058;29;92864;-88
2023/05/27 03:30:14;;;;;;;4.63;2.03;;;21.10;60.10;;;;;;4835882;28;93073;-88
2023/05/27 03:32:40;;;;;;;3.60;2.08;;;21.10;60.50;;;;;;4838423;29;94757;-87
2023/05/27 03:35:06;;;;;;;4.18;1.95;;;21.10;60.50;;;;;;4836667;29;92742;-88
2023/05/27 03:37:31;;;;;;;3.05;2.17;;;21.10;60.60;;;;;;4853866;28;93009;-88
2023/05/27 03:39:57;;;;;;;3.05;2.20;;;21.10;60.40;;;;;;4837853;29;91994;-87
2023/05/27 03:42:23;;;;;;;3.08;2.10;;;21.10;60.60;;;;;;4836211;29;95093;-88
2023/05/27 03:44:52;;;;;;;2.90;1.92;;;21.10;60.70;;;;;;4834416;28;93287;-88
2023/05/27 03:47:20;;;;;;;2.75;2.08;;;21.10;60.70;;;;;;4838216;29;93613;-87
2023/05/27 03:49:46;;;;;;;3.10;2.00;;;21.10;60.50;;;;;;4840968;29;92700;-87
2023/05/27 03:52:11;;;;;;;2.67;1.75;;;21.10;60.60;;;;;;4836915;29;95175;-87
2023/05/27 03:54:37;;;;;;;3.60;2.28;;;21.00;60.60;;;;;;4835088;28;94860;-87
2023/05/27 03:57:03;;;;;;;2.15;1.70;;;21.00;60.70;;;;;;4838319;29;92074;-88
2023/05/27 03:59:30;;;;;;;4.60;2.10;;;21.00;60.60;;;;;;4851942;28;92771;-88
2023/05/27 04:01:55;;;;;;;3.55;1.83;;;21.10;60.70;;;;;;4850766;28;93165;-88
2023/05/27 04:04:21;;;;;;;2.60;1.98;;;21.00;60.70;;;;;;4839057;28;97841;-87
2023/05/27 04:06:47;;;;;;;2.58;1.65;;;21.10;60.80;;;;;;4839116;28;92974;-87
2023/05/27 04:09:12;;;;;;;4.53;2.22;;;21.00;60.60;;;;;;4840399;28;92703;-87
2023/05/27 04:11:38;;;;;;;4.20;2.30;;;21.00;60.90;;;;;;4838069;29;96302;-87
2023/05/27 04:14:05;;;;;;;2.88;1.85;;;21.00;60.70;;;;;;4839651;29;95149;-86
2023/05/27 04:16:33;;;;;;;3.30;2.00;;;21.00;60.70;;;;;;4840988;29;92828;-88
2023/05/27 04:19:00;;;;;;;4.20;2.25;;;21.00;60.50;;;;;;4835697;29;92394;-87
2023/05/27 04:21:26;;;;;;;3.65;1.98;;;21.00;60.60;;;;;;4837941;29;95847;-86
2023/05/27 04:23:51;;;;;;;2.85;2.13;;;21.00;60.70;;;;;;4841088;28;94877;-87
2023/05/27 04:26:18;;;;;;;3.53;2.20;;;21.00;60.70;;;;;;4840423;28;93102;-88
2023/05/27 04:28:45;;;;;;;3.00;2.22;;;21.00;60.60;;;;;;4840257;29;91811;-87
2023/05/27 04:31:12;;;;;;;3.47;1.90;;;21.00;60.70;;;;;;4841904;29;94401;-88
2023/05/27 04:33:39;;;;;;;3.83;2.03;;;21.10;61.00;;;;;;4840457;28;95126;-87
2023/05/27 04:36:09;;;;;;;3.72;2.17;;;21.10;60.70;;;;;;4840001;28;93701;-87
2023/05/27 04:38:34;;;;;;;;;;;21.10;60.70;;;;;;4842305;29;92083;-88
2023/05/27 04:41:00;;;;;;;2.97;2.05;;;21.10;60.80;;;;;;4857325;28;95405;-88
2023/05/27 04:43:29;;;;;;;2.58;2.03;;;21.10;60.80;;;;;;4840268;29;95495;-87
2023/05/27 04:45:56;;;;;;;3.13;2.13;;;21.10;60.70;;;;;;4840980;29;92352;-86
2023/05/27 04:48:26;;;;;;;3.85;1.98;;;21.10;60.60;;;;;;4837768;29;92422;-87
2023/05/27 04:50:52;;;;;;;3.33;2.30;;;21.10;60.70;;;;;;4855815;28;95215;-88
2023/05/27 04:53:18;;;;;;;3.65;2.50;;;21.10;60.70;;;;;;4840203;29;95655;-87
2023/05/27 04:55:45;;;;;;;2.75;2.03;;;21.20;60.90;;;;;;4837263;29;92759;-87
2023/05/27 04:58:10;;;;;;;3.00;1.83;;;21.20;60.70;;;;;;4839698;29;92610;-86
2023/05/27 05:00:48;;;;;;;2.83;1.98;;;21.20;60.50;;;;;;4840105;29;94251;-87
2023/05/27 05:03:20;;;;;;;2.17;1.83;;;21.20;60.50;;;;;;4841939;29;96130;-88
2023/05/27 05:05:53;;;;;;;3.10;2.10;;;21.20;60.50;;;;;;4840583;29;92358;-88
2023/05/27 05:08:20;;;;;;;3.35;1.67;;;21.20;60.50;;;;;;4840987;28;92445;-87
2023/05/27 05:10:49;;;;;;;3.53;2.08;;;21.20;60.50;;;;;;4843186;29;92912;-88
2023/05/27 05:13:15;;;;;;;3.10;1.92;;;21.30;60.60;;;;;;4838406;29;95272;-88
2023/05/27 05:15:43;;;;;;;2.63;1.92;;;21.30;60.40;;;;;;4840271;28;92228;-86
2023/05/27 05:18:10;;;;;;;3.35;1.98;;;21.30;60.40;;;;;;4840414;29;92549;-87
2023/05/27 05:20:36;;;;;;;3.85;1.95;;;21.30;60.40;;;;;;4841295;29;93954;-88
2023/05/27 05:23:01;;;;;;;3.17;2.10;;;21.30;60.30;;;;;;4837309;29;95201;-87
2023/05/27 05:25:27;;;;;;;2.15;1.95;;;21.30;60.40;;;;;;4837686;29;93603;-87
2023/05/27 05:27:53;;;;;;;2.60;2.08;;;21.30;60.30;;;;;;4839267;29;92568;-88
2023/05/27 05:30:19;;;;;;;3.00;1.98;;;21.40;60.20;;;;;;4840759;28;95839;-87
2023/05/27 05:32:45;;;;;;;3.78;1.63;;;21.40;60.30;;;;;;4839087;29;93843;-88
2023/05/27 05:35:10;;;;;;;5.38;2.33;;;21.40;60.40;;;;;;4841379;29;92930;-88
2023/05/27 05:37:36;;;;;;;3.80;2.15;;;21.40;60.40;;;;;;4852630;28;92519;-86
2023/05/27 05:40:02;;;;;;;2.67;1.83;;;21.50;60.30;;;;;;4839152;28;94646;-88
2023/05/27 05:42:27;;;;;;;4.05;2.22;;;21.50;60.40;;;;;;4840868;28;92505;-88
2023/05/27 05:44:53;;;;;;;2.88;1.90;;;21.50;59.90;;;;;;4841556;29;92469;-85
2023/05/27 05:47:19;;;;;;;1.80;1.55;;;21.50;60.00;;;;;;4835940;29;92976;-86
2023/05/27 05:49:44;;;;;;;4.72;2.13;;;21.50;60.20;;;;;;4838235;29;96875;-85
2023/05/27 05:52:10;;;;;;;2.47;1.63;;;21.60;60.20;;;;;;4832421;29;96563;-84
2023/05/27 05:54:36;;;;;;;8.77;3.58;;;21.50;60.20;;;;;;4838399;28;92347;-86
2023/05/27 05:57:02;;;;;;;13.68;4.88;;;21.50;60.00;;;;;;4839904;29;92751;-87
2023/05/27 05:59:28;;;;;;;19.15;6.95;;;21.60;59.70;;;;;;4836891;29;95849;-84
2023/05/27 06:01:54;;;;;;;23.20;7.18;;;21.80;59.10;;;;;;4840438;29;92593;-84
2023/05/27 06:04:20;;;;;;;21.48;7.43;;;21.80;58.90;;;;;;4840054;28;97455;-87
2023/05/27 06:06:45;;;;;;;19.17;8.13;;;21.80;59.00;;;;;;4840251;29;91760;-87
2023/05/27 06:09:11;;;;;;;20.80;7.22;;;21.80;59.00;;;;;;4841621;28;95903;-89
2023/05/27 06:11:37;;;;;;;25.35;8.20;;;21.80;58.80;;;;;;4842562;29;93163;-87
2023/05/27 06:14:03;;;;;;;22.55;8.55;;;21.80;58.90;;;;;;4838549;29;93219;-86
2023/05/27 06:16:28;;;;;;;24.33;8.45;;;21.90;58.90;;;;;;4839512;29;92400;-87
2023/05/27 06:18:54;;;;;;;22.45;7.38;;;21.80;59.20;;;;;;4840015;28;92498;-87
2023/05/27 06:21:20;;;;;;;23.20;7.00;;;21.80;59.50;;;;;;4842955;28;92627;-86
2023/05/27 06:23:46;;;;;;;20.23;6.75;;;21.90;59.10;;;;;;4843697;29;92179;-89
2023/05/27 06:26:11;;;;;;;20.85;7.50;;;21.80;59.10;;;;;;4858612;28;92571;-91
2023/05/27 06:28:37;;;;;;;20.13;6.13;;;21.80;59.00;;;;;;4846498;29;95451;-91
2023/05/27 06:31:02;;;;;;;20.40;7.18;;;21.80;59.30;;;;;;4842777;29;95619;-95
2023/05/27 06:33:28;;;;;;;16.75;6.10;;;21.90;58.70;;;;;;4846426;28;92436;-91
2023/05/27 06:35:54;;;;;;;21.90;7.45;;;21.90;58.70;;;;;;4846135;29;92357;-95
2023/05/27 06:38:21;;;;;;;17.00;5.57;;;21.90;58.80;;;;;;4844473;29;97059;-92
2023/05/27 06:40:47;;;;;;;25.95;6.55;;;21.90;58.60;;;;;;4852798;28;96210;-90
2023/05/27 06:43:12;;;;;;;21.02;7.25;;;21.90;58.70;;;;;;4861329;28;92638;-95
2023/05/27 06:45:38;;;;;;;24.02;6.47;;;22.00;58.90;;;;;;4846104;29;92916;-96
2023/05/27 06:48:04;;;;;;;19.67;6.40;;;21.90;58.80;;;;;;4846193;28;93609;-94
2023/05/27 06:50:29;;;;;;;18.13;6.20;;;22.00;58.80;;;;;;4846359;29;98766;-92
2023/05/27 06:52:55;;;;;;;19.33;6.82;;;22.10;58.90;;;;;;4847034;29;93782;-94
2023/05/27 06:55:21;;;;;;;19.73;6.40;;;22.10;58.20;;;;;;4857006;28;91867;-92
2023/05/27 06:57:47;;;;;;;22.15;6.10;;;22.20;58.10;;;;;;4842437;28;94274;-94
2023/05/27 07:00:13;;;;;;;23.55;7.38;;;22.20;58.10;;;;;;4839539;29;96732;-92
2023/05/27 07:02:38;;;;;;;18.08;6.07;;;22.20;58.00;;;;;;4842888;29;93994;-94
2023/05/27 07:05:04;;;;;;;13.55;5.65;;;22.20;57.90;;;;;;4843169;28;93031;-93
2023/05/27 07:07:30;;;;;;;23.42;7.03;;;22.20;58.00;;;;;;4843194;29;96269;-93
2023/05/27 07:09:56;;;;;;;18.55;5.63;;;22.20;57.90;;;;;;4857914;28;95311;-92
2023/05/27 07:12:23;;;;;;;19.60;5.93;;;22.30;58.00;;;;;;4842219;28;92723;-94
2023/05/27 07:14:49;;;;;;;14.32;5.78;;;22.30;57.80;;;;;;4855866;28;93063;-91
2023/05/27 07:17:14;;;;;;;18.00;5.82;;;22.30;57.70;;;;;;4857144;28;96147;-95
2023/05/27 07:19:40;;;;;;;20.10;5.88;;;22.40;57.80;;;;;;4841597;29;95447;-90
2023/05/27 07:22:06;;;;;;;15.82;6.00;;;22.40;57.70;;;;;;4850486;28;92645;-92
2023/05/27 07:24:32;;;;;;;14.13;5.68;;;22.40;57.70;;;;;;4840735;29;92490;-92
2023/05/27 07:26:57;;;;;;;14.88;5.93;;;22.50;57.60;;;;;;4842704;29;97102;-89
2023/05/27 07:29:23;;;;;;;20.90;6.30;;;22.60;57.40;;;;;;4840474;29;97178;-89
2023/05/27 07:31:48;;;;;;;14.73;5.28;;;22.60;57.30;;;;;;4838660;29;92976;-91
2023/05/27 07:34:14;;;;;;;15.55;5.78;;;22.70;57.40;;;;;;4839419;29;92491;-93
2023/05/27 07:36:40;;;;;;;24.88;7.07;;;22.70;57.20;;;;;;4841826;29;95707;-89
2023/05/27 07:39:05;;;;;;;15.38;6.05;;;22.70;57.10;;;;;;4840330;29;95195;-95
2023/05/27 07:41:32;;;;;;;40.90;10.10;;;22.80;57.40;;;;;;4842555;29;92729;-91
2023/05/27 07:43:58;;;;;;;37.30;9.43;;;22.60;57.50;;;;;;4842094;29;91682;-94
2023/05/27 07:46:30;;;;;;;45.63;10.48;;;22.60;57.80;;;;;;4853910;28;95969;-88
2023/05/27 07:48:56;;;;;;;49.28;11.90;;;22.60;57.90;;;;;;4847320;29;94309;-96
2023/05/27 07:51:52;;;;;;;44.67;12.75;;;22.50;58.00;;;;;;4870863;28;93028;-93
2023/05/27 07:54:20;;;;;;;42.60;12.48;;;22.40;56.50;;;;;;4864379;28;91215;-92
2023/05/27 07:57:43;;;;;;;43.22;10.88;;;22.20;54.50;;;;;;4884004;28;95224;-87
2023/05/27 08:00:13;;;;;;;35.92;10.43;;;22.20;54.50;;;;;;4821355;28;97013;-91
2023/05/27 08:02:38;;;;;;;33.42;10.35;;;22.20;53.80;;;;;;4814183;29;92679;-90
2023/05/27 08:05:04;;;;;;;35.50;10.50;;;22.20;53.60;;;;;;4855115;28;92910;-90
2023/05/27 08:07:30;;;;;;;43.30;10.90;;;22.20;53.60;;;;;;4854349;28;95632;-88
2023/05/27 08:09:56;;;;;;;37.08;10.60;;;22.30;53.50;;;;;;4841645;28;95256;-92
2023/05/27 08:12:22;;;;;;;38.53;11.68;;;22.40;53.40;;;;;;4863468;28;92995;-92
2023/05/27 08:14:48;;;;;;;40.45;11.70;;;22.50;53.40;;;;;;4870528;28;92477;-93
2023/05/27 08:17:15;;;;;;;37.38;10.88;;;22.40;53.60;;;;;;4856726;29;93685;-94
2023/05/27 08:19:42;;;;;;;29.38;9.18;;;22.40;53.60;;;;;;4856233;28;93993;-95
2023/05/27 08:22:10;;;;;;;39.42;10.65;;;22.30;52.90;;;;;;4845898;29;91937;-95
2023/05/27 08:24:36;;;;;;;30.07;9.13;;;22.30;53.10;;;;;;4835977;29;93659;-91
2023/05/27 08:27:06;;;;;;;32.53;9.23;;;22.40;53.00;;;;;;4852185;28;94739;-95
2023/05/27 08:29:33;;;;;;;25.38;8.77;;;22.50;52.70;;;;;;4857108;28;99838;-89
2023/05/27 08:31:59;;;;;;;33.13;8.82;;;22.50;52.80;;;;;;4834597;29;92303;-92
2023/05/27 08:34:25;;;;;;;34.30;9.18;;;22.70;56.00;;;;;;4832615;28;92028;-95
2023/05/27 08:36:51;;;;;;;33.65;9.13;;;22.80;52.90;;;;;;4839151;29;95461;-92
2023/05/27 08:39:17;;;;;;;30.58;9.73;;;22.80;52.60;;;;;;4840278;29;94351;-93
2023/05/27 08:41:43;;;;;;;33.85;8.93;;;22.80;52.90;;;;;;4835291;29;93838;-92
2023/05/27 08:44:09;;;;;;;32.55;9.27;;;22.80;53.00;;;;;;4836492;29;92252;-92
2023/05/27 08:46:36;;;;;;;45.17;12.10;;;22.80;53.10;;;;;;4834609;29;95911;-92
2023/05/27 08:49:06;;;;;;;44.95;12.90;;;22.80;53.20;;;;;;4842894;29;91977;-92
2023/05/27 08:51:32;;;;;;;42.58;13.57;;;23.00;53.00;;;;;;4835256;29;92462;-92
2023/05/27 08:54:00;;;;;;;44.28;12.27;;;23.00;52.80;;;;;;4836399;29;92519;-93
2023/05/27 08:56:28;;;;;;;40.63;12.90;;;23.00;53.40;;;;;;4856510;28;95408;-92
2023/05/27 08:58:55;;;;;;;49.95;13.95;;;23.10;53.50;;;;;;4852932;28;95165;-95
2023/05/27 09:01:23;;;;;;;42.33;12.23;;;23.10;52.80;;;;;;4852225;28;93272;-90
2023/05/27 09:03:48;;;;;;;53.58;13.85;;;23.20;52.70;;;;;;4839269;28;92503;-94
2023/05/27 09:06:14;;;;;;;40.85;13.50;;;23.20;53.00;;;;;;4846741;28;96640;-94
2023/05/27 09:08:39;;;;;;;43.67;13.00;;;23.20;53.20;;;;;;4853046;28;95272;-93
2023/05/27 09:11:07;;;;;;;45.65;13.02;;;23.20;53.10;;;;;;4835956;28;92610;-93
2023/05/27 09:13:33;;;;;;;51.85;14.27;;;23.30;53.10;;;;;;4831995;28;92390;-94
2023/05/27 09:16:04;;;;;;;40.22;13.63;;;23.30;53.20;;;;;;4854099;28;95839;-93
2023/05/27 09:18:32;;;;;;;38.85;13.52;;;23.30;53.30;;;;;;4831919;29;95124;-93
2023/05/27 09:20:59;;;;;;;42.10;13.52;;;23.40;53.30;;;;;;4837520;29;92420;-95
2023/05/27 09:23:27;;;;;;;41.72;13.57;;;23.40;53.20;;;;;;4836229;29;92118;-94
2023/05/27 09:25:53;;;;;;;52.67;14.25;;;23.40;53.20;;;;;;4834855;28;95825;-92
2023/05/27 09:28:26;;;;;;;41.42;12.88;;;23.40;53.30;;;;;;4836135;29;92996;-95
2023/05/27 09:31:12;;;;;;;42.45;12.88;;;23.40;53.50;;;;;;4851966;28;93611;-95
2023/05/27 09:33:39;;;;;;;37.22;12.48;;;23.50;53.60;;;;;;4838091;29;92924;-93
2023/05/27 09:36:06;;;;;;;34.05;12.10;;;23.40;53.80;;;;;;4835451;28;92895;-91
2023/05/27 09:38:33;;;;;;;36.65;12.98;;;23.40;53.40;;;;;;4842914;29;94724;-96
2023/05/27 09:40:59;;;;;;;34.78;12.07;;;23.50;54.00;;;;;;4846077;28;92811;-93
2023/05/27 09:43:27;;;;;;;37.60;11.65;;;23.50;54.10;;;;;;4839677;29;93251;-93
2023/05/27 09:46:03;;;;;;;39.22;12.90;;;23.50;53.90;;;;;;4841075;28;95710;-91
2023/05/27 09:48:31;;;;;;;38.53;12.63;;;23.50;54.00;;;;;;4832849;29;95359;-93
2023/05/27 09:50:57;;;;;;;35.22;12.50;;;23.50;54.30;;;;;;4822630;29;92288;-94
2023/05/27 09:53:26;;;;;;;41.28;13.50;;;23.50;54.30;;;;;;4851550;28;93310;-92
2023/05/27 09:55:53;;;;;;;39.00;12.88;;;23.50;54.50;;;;;;4837026;28;96502;-90
2023/05/27 09:58:19;;;;;;;41.08;13.02;;;23.50;54.40;;;;;;4831297;29;95816;-90
2023/05/27 10:00:47;;;;;;;38.03;13.25;;;23.50;55.00;;;;;;4835033;28;92346;-90
2023/05/27 10:03:13;;;;;;;34.05;12.73;;;23.50;55.10;;;;;;4831489;29;93369;-91
2023/05/27 10:05:40;;;;;;;41.58;13.10;;;23.50;55.60;;;;;;4835159;28;93107;-90
2023/05/27 10:08:06;;;;;;;34.42;12.30;;;23.50;56.20;;;;;;4843057;28;95199;-90
2023/05/27 10:10:32;;;;;;;39.70;12.93;;;23.50;55.80;;;;;;4849760;28;93047;-92
2023/05/27 10:12:59;;;;;;;33.33;11.90;;;23.40;56.00;;;;;;4849312;28;91839;-89
2023/05/27 10:15:31;;;;;;;29.95;10.38;;;23.50;55.80;;;;;;4832803;29;94194;-93
2023/05/27 10:17:58;;;;;;;30.30;10.60;;;23.50;56.00;;;;;;4849368;28;94337;-92
2023/05/27 10:20:38;;;;;;;25.75;10.27;;;23.50;56.00;;;;;;4834114;29;93970;-92
2023/05/27 10:23:21;;;;;;;28.05;10.48;;;23.50;56.10;;;;;;4836135;29;92601;-91
2023/05/27 10:25:52;;;;;;;29.55;10.73;;;23.50;56.10;;;;;;4837766;29;95986;-93
2023/05/27 10:28:29;;;;;;;28.88;11.02;;;23.50;56.10;;;;;;4837470;28;92879;-93
2023/05/27 10:31:29;;;;;;;34.63;12.02;;;23.40;56.00;;;;;;4839804;28;92905;-92
2023/05/27 10:33:57;;;;;;;24.88;9.95;;;23.30;56.10;;;;;;4816306;29;92687;-93
2023/05/27 10:36:26;;;;;;;29.85;11.07;;;23.30;55.50;;;;;;4849732;28;96118;-95
2023/05/27 10:39:05;;;;;;;27.15;10.35;;;23.30;55.60;;;;;;4854307;28;93688;-95
2023/05/27 10:41:44;;;;;;;28.95;11.27;;;23.30;55.30;;;;;;4815841;29;94298;-95
2023/05/27 10:44:10;;;;;;;23.17;10.15;;;23.20;55.40;;;;;;4847775;28;92155;-92
2023/05/27 10:46:43;;;;;;;24.65;8.77;;;23.10;55.10;;;;;;4850579;28;96266;-92
2023/05/27 10:49:38;;;;;;;23.52;9.48;;;23.20;53.90;;;;;;4850383;28;97269;-92
2023/05/27 10:52:16;;;;;;;19.70;8.23;;;23.30;53.60;;;;;;4847724;29;92886;-91
2023/05/27 10:54:45;;;;;;;20.15;8.65;;;23.20;52.80;;;;;;4836971;29;93147;-95
2023/05/27 10:57:11;;;;;;;;;;;23.20;53.30;;;;;;4857420;28;95751;-91
2023/05/27 10:59:54;;;;;;;20.08;7.63;;;23.30;52.90;;;;;;4851175;28;93966;-92
2023/05/27 11:02:21;;;;;;;23.65;8.75;;;23.30;53.10;;;;;;4834874;29;93214;-89
2023/05/27 11:04:48;;;;;;;21.88;7.72;;;23.20;53.10;;;;;;4828779;29;92640;-92
2023/05/27 11:07:19;;;;;;;25.65;8.00;;;23.20;53.10;;;;;;4850162;28;93425;-92
2023/05/27 11:09:54;;;;;;;19.83;8.15;;;23.20;53.00;;;;;;4852172;28;96239;-92
2023/05/27 11:12:22;;;;;;;20.77;8.48;;;23.20;53.30;;;;;;4842887;28;93905;-94
2023/05/27 11:14:49;;;;;;;20.77;7.35;;;23.20;53.40;;;;;;4836349;29;92598;-92
2023/05/27 11:17:15;;;;;;;21.38;7.90;;;23.10;53.10;;;;;;4833656;29;95726;-94
2023/05/27 11:19:42;;;;;;;15.65;7.25;;;23.10;53.10;;;;;;4837421;28;93239;-96
2023/05/27 11:22:10;;;;;;;19.48;7.38;;;23.10;53.60;;;;;;4836309;28;92777;-90
2023/05/27 11:24:36;;;;;;;16.98;6.15;;;23.00;53.50;;;;;;4836419;29;93286;-93
2023/05/27 11:27:09;;;;;;;15.60;6.88;;;23.20;53.20;;;;;;4838627;28;93217;-88
2023/05/27 11:29:36;;;;;;;16.55;6.75;;;23.20;53.10;;;;;;4842466;29;100388;-92
2023/05/27 11:32:01;;;;;;;15.15;6.85;;;23.20;52.70;;;;;;4836316;29;93028;-91
2023/05/27 11:34:27;;;;;;;20.13;6.47;;;23.20;53.10;;;;;;4832966;29;92948;-89
2023/05/27 11:36:53;;;;;;;18.88;7.18;;;23.20;53.20;;;;;;4839192;29;94082;-90
2023/05/27 11:39:19;;;;;;;23.67;7.18;;;23.20;53.60;;;;;;4841710;29;93771;-93
2023/05/27 11:41:52;;;;;;;21.80;7.28;;;23.20;53.30;;;;;;4842690;29;92516;-94
2023/05/27 11:44:23;;;;;;;17.25;6.32;;;23.20;53.70;;;;;;4831941;29;93050;-96
2023/05/27 11:46:50;;;;;;;17.77;6.53;;;23.20;53.60;;;;;;4848812;28;95831;-93
2023/05/27 11:49:17;;;;;;;18.40;6.55;;;23.20;53.80;;;;;;4849308;28;95380;-92
2023/05/27 11:51:48;;;;;;;14.40;5.65;;;23.20;53.40;;;;;;4829948;29;92869;-94
2023/05/27 11:54:32;;;;;;;17.45;6.72;;;23.20;53.40;;;;;;4844698;28;92500;-93
2023/05/27 11:57:00;;;;;;;18.80;7.30;;;23.20;53.40;;;;;;4837920;29;94232;-91
2023/05/27 11:59:26;;;;;;;19.92;6.97;;;23.20;53.40;;;;;;4832185;29;92710;-89
2023/05/27 12:01:55;;;;;;;19.42;6.95;;;23.20;53.60;;;;;;4848859;28;94154;-90
2023/05/27 12:04:21;;;;;;;13.98;5.95;;;23.20;53.70;;;;;;4849558;28;92656;-93
2023/05/27 12:06:47;;;;;;;15.07;6.63;;;23.20;53.90;;;;;;4832277;28;93637;-91
2023/05/27 12:09:14;;;;;;;16.88;6.90;;;23.20;54.10;;;;;;4833067;28;95745;-91
2023/05/27 12:11:39;;;;;;;18.70;6.63;;;23.30;54.00;;;;;;4834253;29;92335;-91
2023/05/27 12:14:06;;;;;;;16.77;6.85;;;23.30;54.00;;;;;;4851402;28;92549;-93
2023/05/27 12:16:31;;;;;;;16.80;6.20;;;23.30;53.80;;;;;;4837099;29;92837;-92
2023/05/27 12:18:58;;;;;;;20.38;6.03;;;23.40;54.00;;;;;;4833261;29;93179;-93
2023/05/27 12:21:24;;;;;;;19.55;6.30;;;23.30;54.00;;;;;;4830646;29;93244;-88
2023/05/27 12:23:50;;;;;;;21.95;6.00;;;23.30;54.00;;;;;;4832408;29;93668;-91
2023/05/27 12:26:16;;;;;;;21.65;6.90;;;23.40;54.20;;;;;;4827660;29;97550;-91
2023/05/27 12:28:42;;;;;;;15.43;5.95;;;23.40;54.00;;;;;;4831964;29;96125;-93
2023/05/27 12:31:10;;;;;;;13.13;5.72;;;23.30;54.70;;;;;;4827581;29;92234;-89
2023/05/27 12:33:36;;;;;;;17.00;6.00;;;23.30;54.10;;;;;;4854984;28;93749;-93
2023/05/27 12:36:05;;;;;;;17.83;7.07;;;23.30;54.20;;;;;;4849839;29;93167;-93
2023/05/27 12:38:32;;;;;;;;;;;23.30;54.20;;;;;;4854764;29;99567;-91
2023/05/27 12:40:57;;;;;;;22.55;6.97;;;23.20;54.10;;;;;;4867192;28;92858;-92
2023/05/27 12:43:26;;;;;;;14.35;6.15;;;23.20;54.30;;;;;;4864267;28;91273;-90